createdAt,value
2017-08-31T00:00:47.931Z,88.80
2017-08-31T00:03:13.846Z,88.70
2017-08-31T00:05:39.816Z,88.50
2017-08-31T00:08:05.778Z,88.40
2017-08-31T00:10:31.763Z,88.20
2017-08-31T00:12:57.740Z,88.10
2017-08-31T00:15:23.684Z,88.40
2017-08-31T00:17:49.655Z,88.20
2017-08-31T00:20:15.653Z,87.80
2017-08-31T00:22:41.567Z,87.80
2017-08-31T00:25:07.512Z,88.10
2017-08-31T00:27:33.425Z,88.40
2017-08-31T00:30:00.079Z,88.40
2017-08-31T00:32:26.071Z,88.50
2017-08-31T00:34:52.001Z,88.70
2017-08-31T00:37:18.585Z,88.70
2017-08-31T00:39:44.555Z,88.40
2017-08-31T00:42:10.471Z,88.30
2017-08-31T00:44:36.491Z,88.00
2017-08-31T00:47:02.447Z,88.20
2017-08-31T00:49:28.354Z,88.20
2017-08-31T00:51:54.259Z,88.30
2017-08-31T00:54:20.689Z,88.30
2017-08-31T00:56:46.709Z,87.90
2017-08-31T00:59:12.668Z,88.50
2017-08-31T01:01:38.696Z,88.80
2017-08-31T01:04:05.288Z,89.00
2017-08-31T01:06:31.215Z,89.10
2017-08-31T01:08:57.164Z,89.30
2017-08-31T01:11:23.148Z,89.00
2017-08-31T01:13:49.113Z,89.60
2017-08-31T01:16:15.129Z,89.50
2017-08-31T01:18:41.048Z,89.40
2017-08-31T01:21:06.996Z,89.60
2017-08-31T01:23:32.929Z,89.50
2017-08-31T01:25:58.894Z,89.30
2017-08-31T01:28:24.873Z,89.10
2017-08-31T01:30:50.834Z,88.30
2017-08-31T01:33:16.879Z,88.40
2017-08-31T01:35:42.848Z,88.20
2017-08-31T01:38:08.788Z,88.10
2017-08-31T01:40:34.722Z,88.20
2017-08-31T01:43:00.642Z,88.30
2017-08-31T01:45:26.835Z,88.60
2017-08-31T01:47:52.771Z,88.60
2017-08-31T01:50:18.728Z,88.60
2017-08-31T01:52:44.705Z,88.80
2017-08-31T01:55:10.653Z,89.10
2017-08-31T01:57:36.578Z,89.80
2017-08-31T02:00:02.523Z,89.70
2017-08-31T02:02:28.521Z,89.50
2017-08-31T02:04:54.499Z,89.40
2017-08-31T02:07:20.517Z,89.40
2017-08-31T02:09:46.463Z,89.50
2017-08-31T02:12:12.423Z,89.30
2017-08-31T02:14:38.355Z,89.20
2017-08-31T02:17:04.369Z,89.10
2017-08-31T02:19:30.280Z,89.20
2017-08-31T02:21:56.274Z,89.40
2017-08-31T02:24:22.227Z,89.40
2017-08-31T02:26:48.163Z,89.20
2017-08-31T02:29:14.508Z,89.30
2017-08-31T02:31:40.515Z,89.40
2017-08-31T02:34:06.432Z,89.40
2017-08-31T02:36:32.392Z,89.40
2017-08-31T02:38:58.331Z,89.50
2017-08-31T02:41:24.317Z,89.70
2017-08-31T02:43:50.263Z,90.00
2017-08-31T02:46:16.222Z,90.00
2017-08-31T02:48:42.233Z,90.00
2017-08-31T02:51:08.125Z,90.30
2017-08-31T02:53:34.053Z,90.30
2017-08-31T02:55:59.987Z,90.30
2017-08-31T02:58:25.987Z,90.40
2017-08-31T03:00:51.929Z,90.50
2017-08-31T03:03:18.526Z,90.70
2017-08-31T03:05:44.480Z,90.70
2017-08-31T03:08:10.491Z,90.80
2017-08-31T03:10:36.438Z,90.90
2017-08-31T03:13:02.609Z,91.10
2017-08-31T03:15:28.575Z,91.20
2017-08-31T03:17:54.573Z,91.30
2017-08-31T03:20:20.519Z,91.40
2017-08-31T03:22:46.483Z,91.50
2017-08-31T03:25:12.431Z,91.50
2017-08-31T03:27:38.368Z,91.70
2017-08-31T03:30:04.305Z,91.80
2017-08-31T03:32:30.256Z,91.80
2017-08-31T03:34:56.200Z,91.90
2017-08-31T03:37:22.156Z,92.00
2017-08-31T03:39:48.107Z,92.00
2017-08-31T03:42:14.040Z,92.30
2017-08-31T03:44:40.013Z,92.40
2017-08-31T03:47:05.952Z,92.40
2017-08-31T03:49:31.944Z,92.60
2017-08-31T03:51:57.980Z,92.60
2017-08-31T03:54:23.917Z,92.60
2017-08-31T03:56:49.888Z,92.80
2017-08-31T03:59:15.978Z,92.90
2017-08-31T04:01:41.935Z,93.00
2017-08-31T04:04:07.931Z,93.00
2017-08-31T04:06:33.911Z,93.10
2017-08-31T04:09:00.474Z,93.20
2017-08-31T04:11:26.477Z,93.20
2017-08-31T04:13:52.408Z,93.40
2017-08-31T04:16:18.374Z,93.40
2017-08-31T04:18:44.563Z,93.80
2017-08-31T04:21:10.545Z,93.80
2017-08-31T04:23:36.475Z,94.00
2017-08-31T04:26:02.445Z,94.30
2017-08-31T04:28:28.435Z,94.40
2017-08-31T04:30:54.401Z,94.50
2017-08-31T04:33:20.359Z,94.70
2017-08-31T04:35:47.281Z,94.80
2017-08-31T04:38:13.223Z,94.80
2017-08-31T04:40:39.167Z,95.00
2017-08-31T04:43:05.164Z,95.10
2017-08-31T04:45:31.105Z,94.90
2017-08-31T04:47:57.079Z,94.80
2017-08-31T04:50:23.047Z,94.60
2017-08-31T04:52:48.967Z,94.60
2017-08-31T04:55:14.907Z,94.60
2017-08-31T04:57:40.907Z,94.60
2017-08-31T05:00:07.783Z,94.50
2017-08-31T05:02:33.785Z,94.60
2017-08-31T05:04:59.812Z,94.80
2017-08-31T05:07:26.747Z,94.90
2017-08-31T05:09:52.939Z,95.00
2017-08-31T05:12:18.922Z,94.90
2017-08-31T05:14:44.927Z,94.90
2017-08-31T05:17:10.898Z,95.10
2017-08-31T05:19:36.839Z,95.40
2017-08-31T05:22:03.028Z,95.70
2017-08-31T05:24:28.987Z,96.00
2017-08-31T05:26:54.948Z,96.20
2017-08-31T05:29:20.888Z,96.40
2017-08-31T05:31:46.904Z,96.50
2017-08-31T05:34:12.869Z,96.90
2017-08-31T05:36:38.873Z,96.70
2017-08-31T05:39:04.772Z,97.20
2017-08-31T05:41:30.719Z,97.10
2017-08-31T05:43:56.716Z,97.50
2017-08-31T05:46:22.673Z,97.80
2017-08-31T05:48:48.606Z,98.00
2017-08-31T05:51:14.636Z,98.30
2017-08-31T05:53:40.705Z,98.70
2017-08-31T05:56:06.747Z,98.50
2017-08-31T05:58:32.695Z,98.60
2017-08-31T06:00:58.645Z,99.10
2017-08-31T06:03:24.641Z,99.00
2017-08-31T06:05:50.847Z,99.20
2017-08-31T06:08:16.876Z,99.00
2017-08-31T06:10:43.800Z,99.20
2017-08-31T06:13:10.673Z,99.30
2017-08-31T06:15:36.703Z,99.30
2017-08-31T06:18:02.707Z,99.30
2017-08-31T06:20:28.742Z,99.40
2017-08-31T06:22:54.749Z,99.40
2017-08-31T06:25:22.150Z,99.30
2017-08-31T06:27:48.369Z,99.10
2017-08-31T06:30:18.620Z,99.10
2017-08-31T06:32:44.589Z,98.90
2017-08-31T06:35:10.727Z,99.10
2017-08-31T06:37:36.650Z,99.10
2017-08-31T06:40:02.621Z,99.00
2017-08-31T06:42:28.583Z,99.30
2017-08-31T06:44:54.526Z,99.10
2017-08-31T06:47:20.652Z,98.90
2017-08-31T06:49:47.248Z,98.60
2017-08-31T06:52:13.228Z,98.70
2017-08-31T06:54:39.208Z,98.80
2017-08-31T06:57:05.883Z,99.10
2017-08-31T06:59:31.868Z,99.10
2017-08-31T07:01:57.843Z,99.10
2017-08-31T07:04:23.804Z,99.20
2017-08-31T07:06:49.834Z,99.30
2017-08-31T07:09:16.504Z,99.40
2017-08-31T07:11:42.600Z,99.30
2017-08-31T07:14:08.624Z,99.20
2017-08-31T07:16:34.576Z,99.30
2017-08-31T07:19:00.516Z,99.30
2017-08-31T07:21:26.515Z,99.00
2017-08-31T07:23:52.486Z,98.70
2017-08-31T07:26:18.435Z,99.00
2017-08-31T07:28:44.420Z,98.80
2017-08-31T07:31:10.492Z,98.70
2017-08-31T07:33:36.492Z,98.80
2017-08-31T07:36:02.455Z,98.30
2017-08-31T07:38:28.411Z,98.90
2017-08-31T07:40:54.390Z,98.30
2017-08-31T07:43:20.375Z,98.70
2017-08-31T07:45:46.440Z,99.00
2017-08-31T07:48:12.429Z,99.10
2017-08-31T07:50:38.538Z,98.40
2017-08-31T07:53:04.499Z,98.50
2017-08-31T07:55:30.486Z,98.70
2017-08-31T07:57:56.496Z,98.10
2017-08-31T08:00:23.766Z,97.90
2017-08-31T08:02:49.709Z,98.00
2017-08-31T08:05:15.650Z,97.80
2017-08-31T08:07:41.615Z,97.90
2017-08-31T08:10:07.590Z,97.30
2017-08-31T08:12:34.618Z,97.20
2017-08-31T08:15:00.626Z,96.70
2017-08-31T08:17:28.504Z,96.40
2017-08-31T08:19:54.649Z,95.30
2017-08-31T08:22:20.824Z,95.60
2017-08-31T08:24:47.014Z,96.30
2017-08-31T08:27:13.244Z,92.30
2017-08-31T08:29:39.359Z,93.30
2017-08-31T08:32:05.431Z,93.70
2017-08-31T08:34:31.450Z,95.70
2017-08-31T08:39:29.074Z,97.80
2017-08-31T08:41:58.237Z,98.70
2017-08-31T08:44:24.959Z,98.50
2017-08-31T08:46:51.660Z,97.50
2017-08-31T08:49:19.352Z,98.00
2017-08-31T08:51:45.427Z,97.70
2017-08-31T08:54:11.462Z,98.30
2017-08-31T08:56:40.804Z,97.60
2017-08-31T08:59:07.611Z,97.50
2017-08-31T09:01:34.655Z,96.70
2017-08-31T09:09:04.890Z,95.90
2017-08-31T09:11:30.863Z,95.70
2017-08-31T09:13:57.544Z,95.40
2017-08-31T09:16:23.590Z,95.20
2017-08-31T09:21:24.475Z,92.80
2017-08-31T09:23:50.636Z,93.50
2017-08-31T09:26:17.114Z,92.40
2017-08-31T09:28:44.117Z,92.40
2017-08-31T09:31:10.130Z,91.90
2017-08-31T09:33:37.210Z,91.90
2017-08-31T09:36:03.524Z,92.20
2017-08-31T09:38:30.447Z,92.60
2017-08-31T09:40:58.940Z,91.10
2017-08-31T09:43:25.945Z,90.50
2017-08-31T09:45:51.982Z,91.30
2017-08-31T09:48:18.039Z,90.90
2017-08-31T09:50:44.090Z,89.80
2017-08-31T09:53:10.047Z,87.90
2017-08-31T09:55:36.707Z,86.60
2017-08-31T09:58:02.722Z,86.90
2017-08-31T10:00:29.499Z,85.60
2017-08-31T10:02:55.503Z,85.30
2017-08-31T10:05:22.188Z,82.90
2017-08-31T10:07:48.748Z,83.10
2017-08-31T10:10:14.761Z,83.40
2017-08-31T10:12:40.985Z,83.90
2017-08-31T10:15:07.046Z,85.50
2017-08-31T10:23:04.601Z,81.40
2017-08-31T10:25:36.516Z,81.70
2017-08-31T10:28:06.191Z,83.60
2017-08-31T10:30:36.748Z,81.70
2017-08-31T10:33:07.243Z,81.90
2017-08-31T10:35:37.124Z,81.50
2017-08-31T10:38:11.359Z,81.80
2017-08-31T10:40:41.475Z,80.80
2017-08-31T10:43:07.592Z,80.40
2017-08-31T10:45:33.604Z,80.80
2017-08-31T10:48:00.470Z,80.00
2017-08-31T10:50:26.560Z,79.90
2017-08-31T10:52:52.609Z,80.20
2017-08-31T10:55:18.649Z,79.00
2017-08-31T10:57:44.645Z,79.50
2017-08-31T11:00:10.686Z,75.60
2017-08-31T11:02:36.720Z,75.90
2017-08-31T11:05:02.760Z,74.90
2017-08-31T11:07:28.764Z,75.90
2017-08-31T11:09:54.728Z,74.40
2017-08-31T11:12:20.719Z,75.60
2017-08-31T11:14:46.748Z,76.20
2017-08-31T11:17:12.778Z,77.50
2017-08-31T11:19:38.881Z,78.10
2017-08-31T11:22:04.872Z,77.50
2017-08-31T11:24:30.852Z,77.60
2017-08-31T11:26:57.522Z,77.50
2017-08-31T11:29:23.556Z,77.50
2017-08-31T11:31:50.859Z,77.70
2017-08-31T11:34:16.971Z,77.30
2017-08-31T11:36:43.295Z,76.50
2017-08-31T11:39:09.241Z,75.90
2017-08-31T11:41:35.223Z,75.20
2017-08-31T11:44:01.289Z,75.10
2017-08-31T11:46:28.109Z,74.60
2017-08-31T11:48:54.458Z,74.30
2017-08-31T11:51:20.485Z,72.70
2017-08-31T11:53:46.467Z,72.20
2017-08-31T11:56:12.527Z,71.60
2017-08-31T11:58:40.983Z,70.80
2017-08-31T12:01:07.829Z,71.70
2017-08-31T12:03:35.777Z,71.30
2017-08-31T12:06:02.083Z,72.00
2017-08-31T12:08:31.599Z,72.10
2017-08-31T12:11:00.436Z,70.40
2017-08-31T12:13:27.705Z,69.60
2017-08-31T12:18:44.442Z,67.90
2017-08-31T12:21:17.063Z,67.20
2017-08-31T12:23:47.208Z,64.70
2017-08-31T12:26:18.765Z,65.20
2017-08-31T12:28:47.372Z,64.80
2017-08-31T12:31:17.158Z,64.10
2017-08-31T12:44:22.137Z,65.30
2017-08-31T12:49:43.389Z,64.40
2017-08-31T13:01:01.458Z,64.50
2017-08-31T13:14:51.132Z,67.40
2017-08-31T13:17:18.150Z,67.90
2017-08-31T13:19:58.255Z,69.20
2017-08-31T13:22:27.283Z,68.30
2017-08-31T13:24:53.780Z,66.90
2017-08-31T13:27:28.628Z,65.10
2017-08-31T13:29:54.855Z,66.20
2017-08-31T13:32:21.262Z,66.50
2017-08-31T13:34:48.868Z,66.60
2017-08-31T13:37:17.894Z,66.90
2017-08-31T13:39:45.758Z,66.00
2017-08-31T13:42:13.064Z,65.20
2017-08-31T13:44:41.639Z,65.40
2017-08-31T13:47:08.884Z,64.80
2017-08-31T13:49:34.987Z,65.10
2017-08-31T13:52:01.748Z,64.00
2017-08-31T13:54:28.699Z,65.20
2017-08-31T13:56:55.743Z,65.40
2017-08-31T13:59:22.163Z,66.80
2017-08-31T14:01:48.248Z,67.50
2017-08-31T14:04:14.275Z,67.80
2017-08-31T14:06:40.302Z,68.10
2017-08-31T14:09:07.069Z,67.20
2017-08-31T14:11:34.325Z,68.20
2017-08-31T14:14:00.420Z,68.30
2017-08-31T14:19:12.395Z,68.50
2017-08-31T14:21:38.588Z,68.00
2017-08-31T14:24:04.548Z,68.90
2017-08-31T14:26:31.679Z,67.90
2017-08-31T14:28:57.749Z,65.60
2017-08-31T14:31:23.851Z,66.50
2017-08-31T14:33:49.920Z,65.90
2017-08-31T14:36:15.945Z,65.50
2017-08-31T14:38:43.763Z,66.00
2017-08-31T14:41:09.781Z,66.10
2017-08-31T14:43:35.799Z,66.80
2017-08-31T14:46:02.171Z,67.00
2017-08-31T14:48:28.394Z,67.90
2017-08-31T14:50:54.685Z,67.90
2017-08-31T14:53:20.731Z,67.50
2017-08-31T14:55:48.085Z,67.10
2017-08-31T14:58:14.206Z,67.50
2017-08-31T15:00:40.437Z,68.00
2017-08-31T15:03:07.100Z,67.60
2017-08-31T15:05:33.089Z,67.50
2017-08-31T15:07:59.076Z,68.10
2017-08-31T15:10:25.044Z,68.80
2017-08-31T15:12:51.064Z,69.20
2017-08-31T15:15:17.005Z,68.70
2017-08-31T15:17:42.944Z,68.40
2017-08-31T15:20:09.548Z,68.70
2017-08-31T15:22:35.773Z,68.80
2017-08-31T15:25:02.060Z,67.40
2017-08-31T15:27:31.487Z,68.00
2017-08-31T15:29:58.750Z,68.20
2017-08-31T15:32:29.117Z,67.80
2017-08-31T15:34:55.088Z,68.00
2017-08-31T15:37:21.129Z,67.70
2017-08-31T15:39:49.913Z,68.20
2017-08-31T15:42:17.569Z,68.10
2017-08-31T15:44:45.246Z,68.20
2017-08-31T15:47:12.932Z,68.50
2017-08-31T15:49:42.309Z,68.20
2017-08-31T15:52:10.372Z,67.90
2017-08-31T15:54:38.665Z,68.60
2017-08-31T15:57:06.060Z,68.90
2017-08-31T15:59:34.644Z,68.90
2017-08-31T16:02:00.658Z,69.20
2017-08-31T16:04:26.944Z,68.80
2017-08-31T16:06:52.995Z,68.00
2017-08-31T16:09:19.044Z,68.10
2017-08-31T16:11:45.117Z,68.70
2017-08-31T16:14:11.145Z,69.10
2017-08-31T16:16:37.966Z,69.20
2017-08-31T16:19:05.060Z,69.80
2017-08-31T16:21:31.493Z,70.20
2017-08-31T16:23:58.417Z,70.60
2017-08-31T16:26:24.429Z,71.60
2017-08-31T16:28:50.401Z,71.60
2017-08-31T16:31:16.416Z,70.80
2017-08-31T16:33:43.705Z,70.80
2017-08-31T16:36:09.705Z,70.70
2017-08-31T16:38:35.710Z,69.70
2017-08-31T16:41:02.084Z,69.60
2017-08-31T16:43:28.631Z,69.60
2017-08-31T16:45:55.435Z,68.70
2017-08-31T16:48:21.453Z,69.00
2017-08-31T16:50:48.353Z,69.20
2017-08-31T16:53:16.165Z,68.90
2017-08-31T16:55:43.014Z,69.00
2017-08-31T16:58:08.990Z,69.10
2017-08-31T17:00:35.187Z,69.40
2017-08-31T17:03:03.772Z,69.70
2017-08-31T17:05:30.007Z,70.00
2017-08-31T17:08:01.083Z,69.30
2017-08-31T17:10:27.127Z,68.20
2017-08-31T17:12:54.480Z,67.50
2017-08-31T17:15:20.441Z,67.20
2017-08-31T17:17:46.420Z,68.10
2017-08-31T17:20:12.533Z,68.00
2017-08-31T17:22:40.167Z,67.90
2017-08-31T17:25:06.348Z,68.60
2017-08-31T17:27:35.804Z,68.50
2017-08-31T17:30:02.708Z,68.60
2017-08-31T17:32:28.719Z,69.00
2017-08-31T17:34:54.700Z,67.40
2017-08-31T17:37:20.716Z,68.00
2017-08-31T17:39:46.899Z,68.00
2017-08-31T17:42:12.932Z,68.00
2017-08-31T17:44:40.018Z,67.80
2017-08-31T17:47:08.289Z,68.20
2017-08-31T17:49:36.040Z,68.30
2017-08-31T17:52:02.747Z,68.30
2017-08-31T17:57:09.314Z,69.00
2017-08-31T17:59:39.491Z,68.80
2017-08-31T18:02:06.719Z,68.90
2017-08-31T18:04:33.647Z,69.40
2017-08-31T18:06:59.770Z,69.10
2017-08-31T18:09:27.312Z,68.90
2017-08-31T18:11:53.349Z,69.30
2017-08-31T18:14:19.456Z,69.50
2017-08-31T18:16:45.476Z,69.40
2017-08-31T18:19:11.420Z,69.80
2017-08-31T18:21:37.460Z,68.70
2017-08-31T18:24:03.448Z,69.70
2017-08-31T18:26:30.288Z,68.40
2017-08-31T18:28:57.711Z,67.20
2017-08-31T18:31:24.856Z,66.00
2017-08-31T18:33:51.454Z,65.20
2017-08-31T18:36:18.413Z,65.80
2017-08-31T18:38:45.559Z,67.10
2017-08-31T18:41:11.705Z,66.70
2017-08-31T18:43:37.736Z,67.40
2017-08-31T18:46:03.721Z,67.10
2017-08-31T18:48:33.944Z,66.70
2017-08-31T18:51:06.251Z,67.60
2017-08-31T18:53:34.509Z,67.80
2017-08-31T18:56:01.735Z,69.30
2017-08-31T18:58:27.731Z,69.20
2017-08-31T19:00:53.882Z,69.30
2017-08-31T19:03:20.637Z,68.20
2017-08-31T19:05:47.456Z,68.60
2017-08-31T19:08:13.394Z,69.20
2017-08-31T19:10:39.346Z,69.40
2017-08-31T19:13:05.423Z,69.90
2017-08-31T19:15:31.356Z,70.70
2017-08-31T19:17:57.364Z,70.20
2017-08-31T19:20:24.392Z,70.80
2017-08-31T19:22:50.388Z,70.60
2017-08-31T19:25:16.335Z,70.50
2017-08-31T19:27:42.443Z,70.10
2017-08-31T19:30:08.399Z,70.00
2017-08-31T19:32:34.608Z,70.50
2017-08-31T19:35:00.750Z,71.00
2017-08-31T19:37:26.799Z,71.10
2017-08-31T19:39:52.807Z,71.10
2017-08-31T19:42:21.276Z,71.10
2017-08-31T19:44:47.872Z,71.50
2017-08-31T19:47:13.819Z,71.40
2017-08-31T19:49:39.746Z,71.40
2017-08-31T19:52:06.752Z,71.90
2017-08-31T19:54:32.722Z,72.00
2017-08-31T19:57:01.564Z,72.10
2017-08-31T19:59:27.971Z,72.10
2017-08-31T20:01:53.947Z,71.90
2017-08-31T20:04:19.899Z,72.00
2017-08-31T20:06:45.860Z,72.00
2017-08-31T20:09:11.778Z,72.10
2017-08-31T20:11:37.925Z,71.50
2017-08-31T20:14:03.870Z,71.50
2017-08-31T20:16:30.724Z,72.00
2017-08-31T20:18:56.663Z,71.90
2017-08-31T20:21:22.584Z,71.80
2017-08-31T20:23:48.555Z,72.20
2017-08-31T20:26:14.479Z,72.20
2017-08-31T20:28:40.526Z,72.40
2017-08-31T20:31:07.170Z,72.50
2017-08-31T20:33:33.135Z,72.80
2017-08-31T20:36:00.942Z,73.20
2017-08-31T20:38:26.900Z,73.30
2017-08-31T20:40:52.855Z,73.60
2017-08-31T20:43:19.001Z,74.00
2017-08-31T20:45:45.027Z,74.20
2017-08-31T20:48:10.980Z,74.20
2017-08-31T20:50:36.967Z,74.40
2017-08-31T20:53:02.920Z,74.40
2017-08-31T20:55:28.942Z,74.50
2017-08-31T20:57:56.857Z,74.70
2017-08-31T21:00:22.811Z,75.00
2017-08-31T21:02:51.476Z,75.20
2017-08-31T21:05:18.448Z,75.60
2017-08-31T21:07:44.386Z,75.80
2017-08-31T21:10:10.344Z,76.00
2017-08-31T21:12:37.102Z,77.10
2017-08-31T21:15:03.054Z,75.40
2017-08-31T21:17:28.972Z,76.20
2017-08-31T21:19:54.939Z,76.00
2017-08-31T21:22:21.215Z,76.00
2017-08-31T21:24:47.176Z,76.00
2017-08-31T21:27:13.119Z,76.50
2017-08-31T21:29:39.305Z,76.80
2017-08-31T21:32:05.239Z,77.30
2017-08-31T21:34:31.316Z,77.70
2017-08-31T21:36:58.304Z,77.80
2017-08-31T21:39:24.483Z,77.90
2017-08-31T21:41:50.441Z,78.10
2017-08-31T21:44:16.371Z,78.00
2017-08-31T21:46:42.332Z,78.10
2017-08-31T21:49:08.427Z,78.60
2017-08-31T21:51:34.393Z,78.90
2017-08-31T21:54:00.375Z,78.70
2017-08-31T21:56:26.824Z,78.90
2017-08-31T21:58:52.836Z,78.60
2017-08-31T22:01:18.775Z,79.00
2017-08-31T22:03:44.918Z,79.40
2017-08-31T22:06:11.848Z,79.50
2017-08-31T22:08:37.867Z,79.80
2017-08-31T22:11:04.507Z,79.60
2017-08-31T22:13:30.427Z,79.80
2017-08-31T22:15:57.976Z,79.80
2017-08-31T22:18:24.852Z,79.60
2017-08-31T22:20:50.843Z,79.60
2017-08-31T22:23:17.447Z,79.60
2017-08-31T22:25:43.402Z,79.40
2017-08-31T22:28:10.735Z,79.30
2017-08-31T22:30:37.208Z,79.20
2017-08-31T22:33:03.209Z,78.80
2017-08-31T22:35:30.721Z,79.00
2017-08-31T22:37:57.022Z,78.90
2017-08-31T22:40:23.026Z,79.10
2017-08-31T22:42:48.988Z,78.80
2017-08-31T22:45:14.980Z,78.90
2017-08-31T22:47:40.983Z,79.20
2017-08-31T22:50:07.927Z,79.70
2017-08-31T22:52:34.640Z,79.80
2017-08-31T22:55:13.512Z,79.20
2017-08-31T22:57:51.854Z,78.90
2017-08-31T23:00:17.765Z,78.80
2017-08-31T23:02:44.640Z,78.60
2017-08-31T23:05:12.299Z,78.90
2017-08-31T23:07:38.231Z,79.10
2017-08-31T23:10:04.168Z,79.00
2017-08-31T23:12:30.120Z,78.50
2017-08-31T23:14:56.064Z,78.40
2017-08-31T23:17:21.979Z,79.00
2017-08-31T23:19:47.973Z,79.00
2017-08-31T23:22:15.842Z,79.10
2017-08-31T23:24:42.019Z,80.10
2017-08-31T23:27:07.991Z,80.20
2017-08-31T23:29:36.880Z,80.30
2017-08-31T23:32:02.880Z,80.40
2017-08-31T23:34:28.823Z,80.10
2017-08-31T23:36:54.779Z,80.20
2017-08-31T23:39:21.188Z,79.70
2017-08-31T23:41:47.151Z,79.30
2017-08-31T23:44:13.119Z,79.40
2017-08-31T23:46:39.171Z,80.40
2017-08-31T23:49:05.132Z,80.90
2017-08-31T23:51:32.011Z,80.90
2017-08-31T23:53:57.939Z,81.10
2017-08-31T23:56:23.859Z,81.10
2017-08-31T23:58:49.806Z,81.10
